GMFF/FEZ METAR and TAF weather

Enter ICAO airport designator
Station Type Date Time Source
GMFF METAR 2021/03/03 03:00 UTC NOAA

GMFF 030300Z 06005KT 6000 NCD 08/07 Q1023 NOSIG


Station Type Date Time Source
GMFF Decoded METAR 2021/03/03 03:00 UTC NOAA

Fes-Sais, Morocco (GMFF) 33-56N 004-59W 579M
Mar 02, 2021 - 10:00 PM EST / 2021.03.03 0300 UTC
Wind: from the ENE (060 degrees) at 6 MPH (5 KT):0
Visibility: 3 mile(s):0
Temperature: 46 F (8 C)
Dew Point: 44 F (7 C)
Relative Humidity: 93%
Pressure (altimeter): 30.21 in. Hg (1023 hPa)
ob: GMFF 030300Z 06005KT 6000 NCD 08/07 Q1023 NOSIG
cycle: 3

Station Type Date Time Source
GMFF TAF 2021/03/02 18:21 UTC NOAA

TAF TAF GMFF 021700Z 0218/0324 12008KT 9999 SCT026 SCT100
BECMG 0222/0301 CAVOK PROB30
TEMPO 0301/0307 3000 BR SCT009 SCT016
TEMPO 0310/0315 04012G26KT

Example: see airport list